createdAt,value
2023-04-25T00:00:39.244Z,14.00
2023-04-25T00:03:07.730Z,13.93
2023-04-25T00:05:38.361Z,11.87
2023-04-25T00:08:07.249Z,10.33
2023-04-25T00:10:37.132Z,12.03
2023-04-25T00:13:05.564Z,12.57
2023-04-25T00:15:33.670Z,11.77
2023-04-25T00:18:01.920Z,13.70
2023-04-25T00:20:31.069Z,10.83
2023-04-25T00:22:59.461Z,13.93
2023-04-25T00:25:28.121Z,13.20
2023-04-25T00:27:57.859Z,11.50
2023-04-25T00:30:26.355Z,13.67
2023-04-25T00:32:54.690Z,14.50
2023-04-25T00:35:22.730Z,13.07
2023-04-25T00:37:51.033Z,12.63
2023-04-25T00:40:19.210Z,14.17
2023-04-25T00:42:48.996Z,17.47
2023-04-25T00:45:19.670Z,14.50
2023-04-25T00:47:48.562Z,16.40
2023-04-25T00:50:16.666Z,16.97
2023-04-25T00:52:46.696Z,16.83
2023-04-25T00:55:16.905Z,18.33
2023-04-25T00:57:45.203Z,17.53
2023-04-25T01:00:14.588Z,16.90
2023-04-25T01:02:44.401Z,18.70
2023-04-25T01:05:13.093Z,17.20
2023-04-25T01:07:41.832Z,18.20
2023-04-25T01:10:11.045Z,18.13
2023-04-25T01:12:39.922Z,17.37
2023-04-25T01:15:08.914Z,20.57
2023-04-25T01:17:37.700Z,18.23
2023-04-25T01:20:10.689Z,19.10
2023-04-25T01:22:40.361Z,16.73
2023-04-25T01:25:10.396Z,18.03
2023-04-25T01:27:38.921Z,18.07
2023-04-25T01:30:08.661Z,17.33
2023-04-25T01:32:40.334Z,16.47
2023-04-25T01:35:10.853Z,16.93
2023-04-25T01:37:40.850Z,17.93
2023-04-25T01:40:10.147Z,16.43
2023-04-25T01:42:40.326Z,18.50
2023-04-25T01:45:10.100Z,17.83
2023-04-25T01:47:38.696Z,14.70
2023-04-25T01:50:08.352Z,16.80
2023-04-25T01:52:36.477Z,14.57
2023-04-25T01:55:07.264Z,14.83
2023-04-25T01:57:35.482Z,14.03
2023-04-25T02:00:07.692Z,13.87
2023-04-25T02:02:36.042Z,14.27
2023-04-25T02:05:04.214Z,13.13
2023-04-25T02:07:32.413Z,12.37
2023-04-25T02:10:00.630Z,15.63
2023-04-25T02:12:31.946Z,12.23
2023-04-25T02:15:00.162Z,13.53
2023-04-25T02:17:28.762Z,11.83
2023-04-25T02:19:56.918Z,14.00
2023-04-25T02:22:27.957Z,14.13
2023-04-25T02:24:57.027Z,12.83
2023-04-25T02:27:25.359Z,13.20
2023-04-25T02:29:55.376Z,11.27
2023-04-25T02:32:23.658Z,12.63
2023-04-25T02:34:51.764Z,13.10
2023-04-25T02:37:20.011Z,14.80
2023-04-25T02:39:48.161Z,14.57
2023-04-25T02:42:16.350Z,12.57
2023-04-25T02:44:44.538Z,11.57
2023-04-25T02:47:14.196Z,12.87
2023-04-25T02:49:42.593Z,11.97
2023-04-25T02:52:11.026Z,12.00
2023-04-25T02:54:39.178Z,12.20
2023-04-25T02:57:07.310Z,17.07
2023-04-25T02:59:35.801Z,12.23
2023-04-25T03:02:04.879Z,14.30
2023-04-25T03:04:34.545Z,12.83
2023-04-25T03:07:05.619Z,14.33
2023-04-25T03:09:33.797Z,12.73
2023-04-25T03:12:02.584Z,11.97
2023-04-25T03:14:30.892Z,13.27
2023-04-25T03:16:59.060Z,11.20
2023-04-25T03:19:27.367Z,11.23
2023-04-25T03:21:56.873Z,11.00
2023-04-25T03:24:25.002Z,11.47
2023-04-25T03:26:53.124Z,10.63
2023-04-25T03:29:25.583Z,11.27
2023-04-25T03:31:53.761Z,11.90
2023-04-25T03:34:23.173Z,11.77
2023-04-25T03:36:51.247Z,9.93
2023-04-25T03:39:20.865Z,10.37
2023-04-25T03:41:49.104Z,12.93
2023-04-25T03:44:17.260Z,12.87
2023-04-25T03:46:45.657Z,12.90
2023-04-25T03:49:13.938Z,11.87
2023-04-25T03:51:42.050Z,13.33
2023-04-25T03:54:10.191Z,14.87
2023-04-25T03:56:39.797Z,15.97
2023-04-25T03:59:08.841Z,15.33
2023-04-25T04:01:37.214Z,14.17
2023-04-25T04:04:06.038Z,14.43
2023-04-25T04:06:35.018Z,16.43
2023-04-25T04:09:03.111Z,16.83
2023-04-25T04:11:32.519Z,13.77
2023-04-25T04:14:01.983Z,15.13
2023-04-25T04:16:30.880Z,18.33
2023-04-25T04:19:00.301Z,14.10
2023-04-25T04:21:28.513Z,16.20
2023-04-25T04:23:58.838Z,15.20
2023-04-25T04:26:27.261Z,14.70
2023-04-25T04:28:55.572Z,16.70
2023-04-25T04:31:25.864Z,12.23
2023-04-25T04:33:54.393Z,13.90
2023-04-25T04:36:23.067Z,11.50
2023-04-25T04:38:51.544Z,9.00
2023-04-25T04:41:20.682Z,11.93
2023-04-25T04:43:49.129Z,7.57
2023-04-25T04:46:17.527Z,8.27
2023-04-25T04:48:47.157Z,11.07
2023-04-25T04:51:15.456Z,13.37
2023-04-25T04:53:43.668Z,9.07
2023-04-25T04:56:12.058Z,7.53
2023-04-25T04:58:40.173Z,7.80
2023-04-25T05:01:08.703Z,8.33
2023-04-25T05:03:37.127Z,7.33
2023-04-25T05:06:07.394Z,7.87
2023-04-25T05:08:35.503Z,6.63
2023-04-25T05:11:03.732Z,9.57
2023-04-25T05:13:32.060Z,8.23
2023-04-25T05:16:00.510Z,8.50
2023-04-25T05:18:28.840Z,6.47
2023-04-25T05:20:57.071Z,8.50
2023-04-25T05:23:28.834Z,9.37
2023-04-25T05:25:57.388Z,4.90
2023-04-25T05:28:25.596Z,5.60
2023-04-25T05:30:53.678Z,6.57
2023-04-25T05:33:22.082Z,6.23
2023-04-25T05:35:51.218Z,6.83
2023-04-25T05:38:19.333Z,5.23
2023-04-25T05:40:49.037Z,7.67
2023-04-25T05:43:17.337Z,5.27
2023-04-25T05:45:45.465Z,7.23
2023-04-25T05:48:13.860Z,3.57
2023-04-25T05:50:42.016Z,4.23
2023-04-25T05:53:10.361Z,2.77
2023-04-25T05:55:38.852Z,3.73
2023-04-25T05:58:09.217Z,2.03
2023-04-25T06:00:37.690Z,4.43
2023-04-25T06:03:06.374Z,3.93
2023-04-25T06:05:34.805Z,3.77
2023-04-25T06:08:03.117Z,3.53
2023-04-25T06:10:31.497Z,5.67
2023-04-25T06:12:59.752Z,4.77
2023-04-25T06:15:29.295Z,11.00
2023-04-25T06:17:58.119Z,5.73
2023-04-25T06:20:26.366Z,7.10
2023-04-25T06:22:54.812Z,9.60
2023-04-25T06:25:23.117Z,9.70
2023-04-25T06:27:51.311Z,8.13
2023-04-25T06:30:23.577Z,10.13
2023-04-25T06:32:54.196Z,8.20
2023-04-25T06:35:23.050Z,9.30
2023-04-25T06:37:51.186Z,9.57
2023-04-25T06:40:19.687Z,7.67
2023-04-25T06:42:47.724Z,6.83
2023-04-25T06:45:15.860Z,9.47
2023-04-25T06:47:44.310Z,9.17
2023-04-25T06:50:13.907Z,5.17
2023-04-25T06:52:42.093Z,4.90
2023-04-25T06:55:11.518Z,4.70
2023-04-25T06:57:39.654Z,7.03
2023-04-25T07:00:10.642Z,6.20
2023-04-25T07:02:39.055Z,5.67
2023-04-25T07:05:07.805Z,7.37
2023-04-25T07:07:37.383Z,5.90
2023-04-25T07:10:06.668Z,4.17
2023-04-25T07:12:34.961Z,4.77
2023-04-25T07:15:06.940Z,6.70
2023-04-25T07:17:35.976Z,1.73
2023-04-25T07:20:04.891Z,3.87
2023-04-25T07:22:33.176Z,2.57
2023-04-25T07:25:03.246Z,3.10
2023-04-25T07:27:31.298Z,3.90
2023-04-25T07:29:59.869Z,2.80
2023-04-25T07:32:28.291Z,5.53
2023-04-25T07:34:56.646Z,3.03
2023-04-25T07:37:24.811Z,5.83
2023-04-25T07:39:53.265Z,3.73
2023-04-25T07:42:22.703Z,3.37
2023-04-25T07:44:52.768Z,1.40
2023-04-25T07:47:21.516Z,2.80
2023-04-25T07:49:49.741Z,2.20
2023-04-25T07:52:17.976Z,2.77
2023-04-25T07:54:47.074Z,3.77
2023-04-25T07:57:15.348Z,0.67
2023-04-25T07:59:45.214Z,1.63
2023-04-25T08:02:13.573Z,2.30
2023-04-25T08:04:41.981Z,1.33
2023-04-25T08:07:10.722Z,2.67
2023-04-25T08:09:39.181Z,4.23
2023-04-25T08:12:07.646Z,3.27
2023-04-25T08:14:38.378Z,3.63
2023-04-25T08:17:08.369Z,1.50
2023-04-25T08:19:36.665Z,3.10
2023-04-25T08:22:04.807Z,2.40
2023-04-25T08:24:33.110Z,4.43
2023-04-25T08:27:01.638Z,2.63
2023-04-25T08:29:29.747Z,4.07
2023-04-25T08:31:58.637Z,4.53
2023-04-25T08:34:28.496Z,3.83
2023-04-25T08:36:56.640Z,1.83
2023-04-25T08:39:25.372Z,3.20
2023-04-25T08:41:53.793Z,5.10
2023-04-25T08:44:23.091Z,2.17
2023-04-25T08:46:51.837Z,3.20
2023-04-25T08:49:20.825Z,2.87
2023-04-25T08:51:52.717Z,3.03
2023-04-25T08:54:34.469Z,3.63
2023-04-25T08:57:05.871Z,5.10
2023-04-25T08:59:36.613Z,3.73
2023-04-25T09:02:05.935Z,3.23
2023-04-25T09:04:34.559Z,2.40
2023-04-25T09:07:04.174Z,1.80
2023-04-25T09:09:32.312Z,4.20
2023-04-25T09:12:02.774Z,0.87
2023-04-25T09:14:31.266Z,1.40
2023-04-25T09:17:05.894Z,2.00
2023-04-25T09:22:09.597Z,1.60
2023-04-25T09:24:39.965Z,2.80
2023-04-25T09:27:09.030Z,3.90
2023-04-25T09:29:38.932Z,3.53
2023-04-25T09:32:15.271Z,3.40
2023-04-25T09:34:45.001Z,2.53
2023-04-25T09:37:14.574Z,2.00
2023-04-25T09:39:43.119Z,2.80
2023-04-25T09:42:11.953Z,6.07
2023-04-25T09:44:45.447Z,2.27
2023-04-25T09:47:14.814Z,1.07
2023-04-25T09:49:44.300Z,3.87
2023-04-25T09:52:18.109Z,0.80
2023-04-25T09:54:47.077Z,1.70
2023-04-25T09:57:16.940Z,2.77
2023-04-25T09:59:50.225Z,2.10
2023-04-25T10:02:21.698Z,3.07
2023-04-25T10:04:54.031Z,3.37
2023-04-25T10:07:27.234Z,6.10
2023-04-25T10:10:00.985Z,4.33
2023-04-25T10:12:29.453Z,1.43
2023-04-25T10:14:58.810Z,0.93
2023-04-25T10:17:28.402Z,2.83
2023-04-25T10:19:57.463Z,4.57
2023-04-25T10:22:34.098Z,2.03
2023-04-25T10:25:04.948Z,2.67
2023-04-25T10:27:33.476Z,3.83
2023-04-25T10:30:07.714Z,1.13
2023-04-25T10:32:36.037Z,4.40
2023-04-25T10:35:15.089Z,3.80
2023-04-25T10:38:05.816Z,1.27
2023-04-25T10:40:34.944Z,2.00
2023-04-25T10:43:37.828Z,2.20
2023-04-25T10:46:15.964Z,3.37
2023-04-25T10:48:50.134Z,1.27
2023-04-25T10:51:21.696Z,3.10
2023-04-25T10:54:00.159Z,3.13
2023-04-25T10:56:30.310Z,5.03
2023-04-25T10:59:14.032Z,3.13
2023-04-25T11:01:43.311Z,0.90
2023-04-25T11:04:25.009Z,2.83
2023-04-25T11:07:06.926Z,3.90
2023-04-25T11:09:38.620Z,1.70
2023-04-25T11:12:09.487Z,7.50
2023-04-25T11:14:38.299Z,2.57
2023-04-25T11:17:06.961Z,2.73
2023-04-25T11:19:35.302Z,1.77
2023-04-25T11:22:04.898Z,3.30
2023-04-25T11:24:35.293Z,2.77
2023-04-25T11:27:07.272Z,3.03
2023-04-25T11:29:36.763Z,2.97
2023-04-25T11:32:05.268Z,2.50
2023-04-25T11:34:34.684Z,4.20
2023-04-25T11:37:04.022Z,4.00
2023-04-25T11:39:32.468Z,1.03
2023-04-25T11:42:03.686Z,5.00
2023-04-25T11:44:36.726Z,2.60
2023-04-25T11:47:05.019Z,2.17
2023-04-25T11:49:33.646Z,2.30
2023-04-25T11:52:01.973Z,1.87
2023-04-25T11:54:30.200Z,2.30
2023-04-25T11:56:58.801Z,3.07
2023-04-25T11:59:28.829Z,4.23
2023-04-25T12:01:58.946Z,1.53
2023-04-25T12:04:27.610Z,5.23
2023-04-25T12:06:58.080Z,3.33
2023-04-25T12:09:32.023Z,4.63
2023-04-25T12:12:03.845Z,2.53
2023-04-25T12:14:33.701Z,2.67
2023-04-25T12:17:05.030Z,2.73
2023-04-25T12:19:37.380Z,2.07
2023-04-25T12:22:20.906Z,2.67
2023-04-25T12:24:49.294Z,3.10
2023-04-25T12:27:19.889Z,1.43
2023-04-25T12:29:54.598Z,5.17
2023-04-25T12:32:24.170Z,3.73
2023-04-25T12:34:52.324Z,3.50
2023-04-25T12:37:20.849Z,2.37
2023-04-25T12:39:49.088Z,4.67
2023-04-25T12:42:17.311Z,2.50
2023-04-25T12:44:45.929Z,4.07
2023-04-25T12:47:14.079Z,2.00
2023-04-25T12:49:43.668Z,1.93
2023-04-25T12:52:11.936Z,6.83
2023-04-25T12:54:40.141Z,2.57
2023-04-25T12:57:08.372Z,2.97
2023-04-25T12:59:36.594Z,1.83
2023-04-25T13:02:05.168Z,2.93
2023-04-25T13:04:33.792Z,13.50
2023-04-25T13:07:03.821Z,3.57
2023-04-25T13:09:31.865Z,1.67
2023-04-25T13:12:00.081Z,3.93
2023-04-25T13:14:28.460Z,1.73
2023-04-25T13:16:56.667Z,4.60
2023-04-25T13:19:24.858Z,1.57
2023-04-25T13:21:53.257Z,2.10
2023-04-25T13:24:22.822Z,6.33
2023-04-25T13:26:50.950Z,2.40
2023-04-25T13:29:19.227Z,1.07
2023-04-25T13:31:47.234Z,5.00
2023-04-25T13:34:15.807Z,4.43
2023-04-25T13:36:44.252Z,5.23
2023-04-25T13:39:13.306Z,6.03
2023-04-25T13:41:42.832Z,7.10
2023-04-25T13:44:11.699Z,4.07
2023-04-25T13:46:46.874Z,1.83
2023-04-25T13:49:16.746Z,2.67
2023-04-25T13:51:45.163Z,2.33
2023-04-25T13:54:13.301Z,4.57
2023-04-25T13:56:43.742Z,1.63
2023-04-25T13:59:12.340Z,2.13
2023-04-25T14:01:40.628Z,3.53
2023-04-25T14:04:08.931Z,3.40
2023-04-25T14:06:37.763Z,1.83
2023-04-25T14:09:08.213Z,4.33
2023-04-25T14:11:36.491Z,1.97
2023-04-25T14:14:05.901Z,1.53
2023-04-25T14:16:34.158Z,4.07
2023-04-25T14:19:02.941Z,1.77
2023-04-25T14:21:32.746Z,1.67
2023-04-25T14:24:00.853Z,4.10
2023-04-25T14:26:29.121Z,4.00
2023-04-25T14:28:57.270Z,4.53
2023-04-25T14:31:26.843Z,3.57
2023-04-25T14:33:57.616Z,1.50
2023-04-25T14:36:27.935Z,2.43
2023-04-25T14:38:56.446Z,6.10
2023-04-25T14:41:24.784Z,1.53
2023-04-25T14:43:53.921Z,7.47
2023-04-25T14:46:23.353Z,2.60
2023-04-25T14:48:53.494Z,3.80
2023-04-25T14:51:21.698Z,1.63
2023-04-25T14:53:50.346Z,1.07
2023-04-25T14:56:18.721Z,1.73
2023-04-25T14:58:47.458Z,1.73
2023-04-25T15:01:16.999Z,11.70
2023-04-25T15:03:45.723Z,4.53
2023-04-25T15:06:15.527Z,3.30
2023-04-25T15:08:44.098Z,2.20
2023-04-25T15:11:13.258Z,1.70
2023-04-25T15:13:42.674Z,5.40
2023-04-25T15:16:11.375Z,2.07
2023-04-25T15:18:39.563Z,1.57
2023-04-25T15:21:08.596Z,1.17
2023-04-25T15:23:39.142Z,1.97
2023-04-25T15:26:07.256Z,2.20
2023-04-25T15:28:36.995Z,2.30
2023-04-25T15:31:05.309Z,13.47
2023-04-25T15:33:39.180Z,1.60
2023-04-25T15:36:08.194Z,1.50
2023-04-25T15:38:37.952Z,1.67
2023-04-25T15:41:07.438Z,2.83
2023-04-25T15:43:38.550Z,3.47
2023-04-25T15:46:07.294Z,3.90
2023-04-25T15:48:36.324Z,2.33
2023-04-25T15:51:08.611Z,2.27
2023-04-25T15:53:38.089Z,4.53
2023-04-25T15:56:06.655Z,1.13
2023-04-25T15:58:36.352Z,6.43
2023-04-25T16:01:07.927Z,2.37
2023-04-25T16:03:36.646Z,4.40
2023-04-25T16:06:06.241Z,4.67
2023-04-25T16:08:36.028Z,3.57
2023-04-25T16:11:06.052Z,3.90
2023-04-25T16:13:35.562Z,2.93
2023-04-25T16:16:03.914Z,1.30
2023-04-25T16:18:32.223Z,1.33
2023-04-25T16:21:00.599Z,1.60
2023-04-25T16:23:28.674Z,1.50
2023-04-25T16:25:56.932Z,0.87
2023-04-25T16:28:26.757Z,3.57
2023-04-25T16:30:54.918Z,1.20
2023-04-25T16:33:23.015Z,2.37
2023-04-25T16:35:53.702Z,3.00
2023-04-25T16:38:22.314Z,3.03
2023-04-25T16:40:50.403Z,2.90
2023-04-25T16:43:20.651Z,1.20
2023-04-25T16:45:51.088Z,2.03
2023-04-25T16:48:20.894Z,1.93
2023-04-25T16:50:49.083Z,2.43
2023-04-25T16:53:17.802Z,2.87
2023-04-25T16:55:47.530Z,1.80
2023-04-25T16:58:15.841Z,2.57
2023-04-25T17:00:44.350Z,1.57
2023-04-25T17:03:14.580Z,2.63
2023-04-25T17:05:42.961Z,2.70
2023-04-25T17:08:11.028Z,4.53
2023-04-25T17:10:39.193Z,4.07
2023-04-25T17:13:07.411Z,4.03
2023-04-25T17:15:35.591Z,2.97
2023-04-25T17:18:03.894Z,4.03
2023-04-25T17:20:33.839Z,2.87
2023-04-25T17:23:02.806Z,4.83
2023-04-25T17:25:35.267Z,2.33
2023-04-25T17:28:03.935Z,3.13
2023-04-25T17:30:32.397Z,4.70
2023-04-25T17:33:00.824Z,5.30
2023-04-25T17:35:31.738Z,9.50
2023-04-25T17:38:04.863Z,8.10
2023-04-25T17:40:34.360Z,2.80
2023-04-25T17:43:02.541Z,2.63
2023-04-25T17:45:34.866Z,5.60
2023-04-25T17:48:04.179Z,3.07
2023-04-25T17:50:33.180Z,1.33
2023-04-25T17:53:04.506Z,6.80
2023-04-25T17:55:33.066Z,2.10
2023-04-25T17:58:01.305Z,2.83
2023-04-25T18:00:31.867Z,3.50
2023-04-25T18:03:02.829Z,2.57
2023-04-25T18:05:32.899Z,0.67
2023-04-25T18:08:02.787Z,1.53
2023-04-25T18:10:35.265Z,11.33
2023-04-25T18:13:03.751Z,1.90
2023-04-25T18:15:32.181Z,1.10
2023-04-25T18:18:03.276Z,4.73
2023-04-25T18:20:32.920Z,2.40
2023-04-25T18:23:02.964Z,3.50
2023-04-25T18:25:34.692Z,2.70
2023-04-25T18:28:03.093Z,1.53
2023-04-25T18:30:31.324Z,4.00
2023-04-25T18:32:59.953Z,2.33
2023-04-25T18:35:31.487Z,4.63
2023-04-25T18:37:59.594Z,2.20
2023-04-25T18:40:29.398Z,2.73
2023-04-25T18:42:58.261Z,3.17
2023-04-25T18:45:26.715Z,4.27
2023-04-25T18:47:55.353Z,5.80
2023-04-25T18:50:26.884Z,1.40
2023-04-25T18:52:55.306Z,1.50
2023-04-25T18:55:23.773Z,3.57
2023-04-25T18:57:53.513Z,8.20
2023-04-25T19:00:22.282Z,2.07
2023-04-25T19:02:51.033Z,1.60
2023-04-25T19:05:19.999Z,3.13
2023-04-25T19:07:48.327Z,3.13
2023-04-25T19:10:16.852Z,2.97
2023-04-25T19:12:44.998Z,1.77
2023-04-25T19:15:19.201Z,2.20
2023-04-25T19:17:48.094Z,5.97
2023-04-25T19:20:16.449Z,2.23
2023-04-25T19:22:50.432Z,3.63
2023-04-25T19:25:19.500Z,4.73
2023-04-25T19:27:47.962Z,4.67
2023-04-25T19:30:18.019Z,3.27
2023-04-25T19:32:49.368Z,5.47
2023-04-25T19:35:17.531Z,0.73
2023-04-25T19:37:49.513Z,1.57
2023-04-25T19:40:20.275Z,1.20
2023-04-25T19:42:51.033Z,3.33
2023-04-25T19:45:22.027Z,3.67
2023-04-25T19:47:50.190Z,1.50
2023-04-25T19:50:19.678Z,4.50
2023-04-25T19:52:48.096Z,2.40
2023-04-25T19:55:16.702Z,0.93
2023-04-25T19:57:44.983Z,7.23
2023-04-25T20:00:17.430Z,1.67
2023-04-25T20:02:49.310Z,1.67
2023-04-25T20:05:18.854Z,4.23
2023-04-25T20:07:46.950Z,1.63
2023-04-25T20:10:16.623Z,1.37
2023-04-25T20:12:45.723Z,2.27
2023-04-25T20:15:13.824Z,2.87
2023-04-25T20:17:42.669Z,6.83
2023-04-25T20:20:13.583Z,1.07
2023-04-25T20:22:41.722Z,1.43
2023-04-25T20:25:12.455Z,1.87
2023-04-25T20:27:41.001Z,3.07
2023-04-25T20:30:12.120Z,2.97
2023-04-25T20:32:41.042Z,4.80
2023-04-25T20:35:10.862Z,3.67
2023-04-25T20:37:40.635Z,1.27
2023-04-25T20:40:10.194Z,2.13
2023-04-25T20:42:38.351Z,5.33
2023-04-25T20:45:12.729Z,4.57
2023-04-25T20:47:41.500Z,2.33
2023-04-25T20:50:11.130Z,1.97
2023-04-25T20:52:41.978Z,2.70
2023-04-25T20:55:10.989Z,4.23
2023-04-25T20:57:39.323Z,0.93
2023-04-25T21:00:16.964Z,0.67
2023-04-25T21:02:45.296Z,1.63
2023-04-25T21:05:14.064Z,0.57
2023-04-25T21:07:44.737Z,0.67
2023-04-25T21:10:14.430Z,3.10
2023-04-25T21:12:44.140Z,1.87
2023-04-25T21:15:14.657Z,1.27
2023-04-25T21:17:43.535Z,0.70
2023-04-25T21:20:12.205Z,0.70
2023-04-25T21:22:47.938Z,0.80
2023-04-25T21:25:21.054Z,1.27
2023-04-25T21:27:50.338Z,1.27
2023-04-25T21:30:20.425Z,2.37
2023-04-25T21:32:51.515Z,1.33
2023-04-25T21:35:21.296Z,1.47
2023-04-25T21:37:49.662Z,1.30
2023-04-25T21:40:19.827Z,1.60
2023-04-25T21:42:51.657Z,1.00
2023-04-25T21:45:21.314Z,0.73
2023-04-25T21:47:50.698Z,1.50
2023-04-25T21:50:19.594Z,0.53
2023-04-25T21:52:48.396Z,1.77
2023-04-25T21:55:19.884Z,5.00
2023-04-25T21:57:48.370Z,4.00
2023-04-25T22:00:24.851Z,1.63
2023-04-25T22:02:54.181Z,3.40
2023-04-25T22:05:23.427Z,1.67
2023-04-25T22:07:53.164Z,1.53
2023-04-25T22:10:23.398Z,1.10
2023-04-25T22:12:51.929Z,2.30
2023-04-25T22:15:21.684Z,3.03
2023-04-25T22:17:51.050Z,2.90
2023-04-25T22:20:23.277Z,0.90
2023-04-25T22:22:51.716Z,1.47
2023-04-25T22:25:21.197Z,1.03
2023-04-25T22:27:51.654Z,1.40
2023-04-25T22:30:20.002Z,4.20
2023-04-25T22:32:48.281Z,2.03
2023-04-25T22:35:16.820Z,3.63
2023-04-25T22:37:45.285Z,1.50
2023-04-25T22:40:14.392Z,5.03
2023-04-25T22:42:43.751Z,4.80
2023-04-25T22:45:14.768Z,0.90
2023-04-25T22:47:43.191Z,2.60
2023-04-25T22:50:16.976Z,2.33
2023-04-25T22:52:45.484Z,0.93
2023-04-25T22:55:13.677Z,2.17
2023-04-25T22:57:42.667Z,2.43
2023-04-25T23:00:16.561Z,2.13
2023-04-25T23:02:47.378Z,2.17
2023-04-25T23:05:16.953Z,2.90
2023-04-25T23:07:47.316Z,0.97
2023-04-25T23:10:15.526Z,0.87
2023-04-25T23:12:44.075Z,1.43
2023-04-25T23:15:13.639Z,1.50
2023-04-25T23:17:42.483Z,2.33
2023-04-25T23:20:13.446Z,2.27
2023-04-25T23:22:42.242Z,0.73
2023-04-25T23:25:12.009Z,3.80
2023-04-25T23:27:40.156Z,3.47
2023-04-25T23:30:10.173Z,2.00
2023-04-25T23:32:38.985Z,2.67
2023-04-25T23:35:08.255Z,1.80
2023-04-25T23:37:38.337Z,1.90
2023-04-25T23:40:10.043Z,1.10
2023-04-25T23:42:38.682Z,1.87
2023-04-25T23:45:08.613Z,3.07
2023-04-25T23:47:37.755Z,1.57
2023-04-25T23:50:07.229Z,4.13
2023-04-25T23:52:36.347Z,2.00
2023-04-25T23:55:06.743Z,1.03
2023-04-25T23:57:35.126Z,1.70
